sensor_id;sensor_type;location;lat;lon;timestamp;P1;durP1;ratioP1;P2;durP2;ratioP2
15114;SDS011;7658;51.456;7.622;2023-06-19T00:02:16;5.72;;;4.72;;
15114;SDS011;7658;51.456;7.622;2023-06-19T00:04:42;8.55;;;5.22;;
15114;SDS011;7658;51.456;7.622;2023-06-19T00:07:07;6.38;;;5.30;;
15114;SDS011;7658;51.456;7.622;2023-06-19T00:09:33;7.82;;;5.45;;
15114;SDS011;7658;51.456;7.622;2023-06-19T00:11:59;6.28;;;5.45;;
15114;SDS011;7658;51.456;7.622;2023-06-19T00:14:26;6.10;;;5.13;;
15114;SDS011;7658;51.456;7.622;2023-06-19T00:16:52;9.35;;;6.20;;
15114;SDS011;7658;51.456;7.622;2023-06-19T00:19:17;7.57;;;5.57;;
15114;SDS011;7658;51.456;7.622;2023-06-19T00:21:43;7.65;;;5.63;;
15114;SDS011;7658;51.456;7.622;2023-06-19T00:24:10;7.50;;;5.43;;
15114;SDS011;7658;51.456;7.622;2023-06-19T00:26:36;8.52;;;5.10;;
15114;SDS011;7658;51.456;7.622;2023-06-19T00:29:01;7.60;;;5.60;;
15114;SDS011;7658;51.456;7.622;2023-06-19T00:31:28;5.72;;;4.80;;
15114;SDS011;7658;51.456;7.622;2023-06-19T00:33:54;7.00;;;5.40;;
15114;SDS011;7658;51.456;7.622;2023-06-19T00:36:20;6.10;;;4.88;;
15114;SDS011;7658;51.456;7.622;2023-06-19T00:38:46;6.70;;;5.25;;
15114;SDS011;7658;51.456;7.622;2023-06-19T00:41:15;6.85;;;4.88;;
15114;SDS011;7658;51.456;7.622;2023-06-19T00:43:44;5.47;;;4.80;;
15114;SDS011;7658;51.456;7.622;2023-06-19T00:46:09;5.55;;;4.63;;
15114;SDS011;7658;51.456;7.622;2023-06-19T00:48:36;5.90;;;4.75;;
15114;SDS011;7658;51.456;7.622;2023-06-19T00:51:02;6.25;;;5.03;;
15114;SDS011;7658;51.456;7.622;2023-06-19T00:53:28;5.57;;;4.82;;
15114;SDS011;7658;51.456;7.622;2023-06-19T00:55:56;6.70;;;4.68;;
15114;SDS011;7658;51.456;7.622;2023-06-19T00:58:22;5.50;;;4.90;;
15114;SDS011;7658;51.456;7.622;2023-06-19T01:00:48;6.50;;;4.55;;
15114;SDS011;7658;51.456;7.622;2023-06-19T01:03:15;6.50;;;5.07;;
15114;SDS011;7658;51.456;7.622;2023-06-19T01:05:41;8.73;;;5.10;;
15114;SDS011;7658;51.456;7.622;2023-06-19T01:10:59;7.47;;;5.03;;
15114;SDS011;7658;51.456;7.622;2023-06-19T01:13:28;7.47;;;5.38;;
15114;SDS011;7658;51.456;7.622;2023-06-19T01:16:05;6.72;;;5.50;;
15114;SDS011;7658;51.456;7.622;2023-06-19T01:18:32;6.28;;;5.07;;
15114;SDS011;7658;51.456;7.622;2023-06-19T01:21:17;6.63;;;4.85;;
15114;SDS011;7658;51.456;7.622;2023-06-19T01:23:44;6.38;;;5.20;;
15114;SDS011;7658;51.456;7.622;2023-06-19T01:26:11;8.90;;;5.78;;
15114;SDS011;7658;51.456;7.622;2023-06-19T01:28:38;6.18;;;5.40;;
15114;SDS011;7658;51.456;7.622;2023-06-19T01:31:06;5.60;;;4.78;;
15114;SDS011;7658;51.456;7.622;2023-06-19T01:33:46;6.22;;;5.05;;
15114;SDS011;7658;51.456;7.622;2023-06-19T01:36:14;7.28;;;5.60;;
15114;SDS011;7658;51.456;7.622;2023-06-19T01:38:42;7.82;;;5.50;;
15114;SDS011;7658;51.456;7.622;2023-06-19T01:41:10;7.03;;;5.35;;
15114;SDS011;7658;51.456;7.622;2023-06-19T01:43:37;7.38;;;5.82;;
15114;SDS011;7658;51.456;7.622;2023-06-19T01:46:04;7.63;;;5.88;;
15114;SDS011;7658;51.456;7.622;2023-06-19T01:48:29;8.75;;;6.50;;
15114;SDS011;7658;51.456;7.622;2023-06-19T01:50:55;6.85;;;5.63;;
15114;SDS011;7658;51.456;7.622;2023-06-19T01:53:21;6.57;;;5.38;;
15114;SDS011;7658;51.456;7.622;2023-06-19T01:55:47;6.60;;;5.20;;
15114;SDS011;7658;51.456;7.622;2023-06-19T01:58:13;7.72;;;5.38;;
15114;SDS011;7658;51.456;7.622;2023-06-19T02:00:39;9.23;;;5.72;;
15114;SDS011;7658;51.456;7.622;2023-06-19T02:03:04;8.65;;;6.22;;
15114;SDS011;7658;51.456;7.622;2023-06-19T02:05:30;7.18;;;5.90;;
15114;SDS011;7658;51.456;7.622;2023-06-19T02:07:57;9.32;;;5.80;;
15114;SDS011;7658;51.456;7.622;2023-06-19T02:10:23;7.40;;;5.93;;
15114;SDS011;7658;51.456;7.622;2023-06-19T02:12:48;7.63;;;6.03;;
15114;SDS011;7658;51.456;7.622;2023-06-19T02:15:14;8.65;;;6.45;;
15114;SDS011;7658;51.456;7.622;2023-06-19T02:17:40;8.23;;;6.30;;
15114;SDS011;7658;51.456;7.622;2023-06-19T02:20:07;7.88;;;5.68;;
15114;SDS011;7658;51.456;7.622;2023-06-19T02:22:37;7.05;;;5.55;;
15114;SDS011;7658;51.456;7.622;2023-06-19T02:25:03;8.40;;;6.35;;
15114;SDS011;7658;51.456;7.622;2023-06-19T02:27:30;7.70;;;5.85;;
15114;SDS011;7658;51.456;7.622;2023-06-19T02:29:56;7.28;;;5.95;;
15114;SDS011;7658;51.456;7.622;2023-06-19T02:32:22;9.38;;;6.50;;
15114;SDS011;7658;51.456;7.622;2023-06-19T02:34:48;8.10;;;6.38;;
15114;SDS011;7658;51.456;7.622;2023-06-19T02:37:14;9.93;;;6.15;;
15114;SDS011;7658;51.456;7.622;2023-06-19T02:39:39;8.25;;;6.07;;
15114;SDS011;7658;51.456;7.622;2023-06-19T02:42:05;7.68;;;5.93;;
15114;SDS011;7658;51.456;7.622;2023-06-19T02:44:32;7.13;;;5.93;;
15114;SDS011;7658;51.456;7.622;2023-06-19T02:46:57;10.73;;;6.10;;
15114;SDS011;7658;51.456;7.622;2023-06-19T02:49:23;7.15;;;5.90;;
15114;SDS011;7658;51.456;7.622;2023-06-19T02:51:49;7.65;;;6.03;;
15114;SDS011;7658;51.456;7.622;2023-06-19T02:54:14;7.22;;;5.80;;
15114;SDS011;7658;51.456;7.622;2023-06-19T02:56:40;7.28;;;5.65;;
15114;SDS011;7658;51.456;7.622;2023-06-19T02:59:06;7.80;;;6.20;;
15114;SDS011;7658;51.456;7.622;2023-06-19T03:01:32;7.20;;;5.88;;
15114;SDS011;7658;51.456;7.622;2023-06-19T03:03:59;7.95;;;6.10;;
15114;SDS011;7658;51.456;7.622;2023-06-19T03:06:25;8.60;;;6.78;;
15114;SDS011;7658;51.456;7.622;2023-06-19T03:08:51;8.10;;;6.28;;
15114;SDS011;7658;51.456;7.622;2023-06-19T03:11:17;8.60;;;6.20;;
15114;SDS011;7658;51.456;7.622;2023-06-19T03:16:11;8.93;;;6.07;;
15114;SDS011;7658;51.456;7.622;2023-06-19T03:18:37;8.77;;;6.32;;
15114;SDS011;7658;51.456;7.622;2023-06-19T03:21:03;9.82;;;6.82;;
15114;SDS011;7658;51.456;7.622;2023-06-19T03:23:29;8.32;;;6.45;;
15114;SDS011;7658;51.456;7.622;2023-06-19T03:25:54;11.50;;;6.47;;
15114;SDS011;7658;51.456;7.622;2023-06-19T03:28:21;8.00;;;6.75;;
15114;SDS011;7658;51.456;7.622;2023-06-19T03:30:46;10.35;;;6.63;;
15114;SDS011;7658;51.456;7.622;2023-06-19T03:33:12;8.35;;;6.65;;
15114;SDS011;7658;51.456;7.622;2023-06-19T03:35:38;8.00;;;6.35;;
15114;SDS011;7658;51.456;7.622;2023-06-19T03:38:03;8.27;;;6.47;;
15114;SDS011;7658;51.456;7.622;2023-06-19T03:40:29;8.02;;;6.05;;
15114;SDS011;7658;51.456;7.622;2023-06-19T03:42:55;7.82;;;6.30;;
15114;SDS011;7658;51.456;7.622;2023-06-19T03:45:21;6.28;;;5.47;;
15114;SDS011;7658;51.456;7.622;2023-06-19T03:47:47;8.05;;;5.93;;
15114;SDS011;7658;51.456;7.622;2023-06-19T03:50:13;8.98;;;5.65;;
15114;SDS011;7658;51.456;7.622;2023-06-19T03:52:39;8.38;;;5.43;;
15114;SDS011;7658;51.456;7.622;2023-06-19T03:55:08;11.13;;;5.90;;
15114;SDS011;7658;51.456;7.622;2023-06-19T03:57:36;7.10;;;5.15;;
15114;SDS011;7658;51.456;7.622;2023-06-19T04:00:02;9.52;;;5.95;;
15114;SDS011;7658;51.456;7.622;2023-06-19T04:02:38;7.20;;;5.25;;
15114;SDS011;7658;51.456;7.622;2023-06-19T04:05:07;7.32;;;5.20;;
15114;SDS011;7658;51.456;7.622;2023-06-19T04:07:37;5.63;;;4.65;;
15114;SDS011;7658;51.456;7.622;2023-06-19T04:10:03;6.20;;;4.90;;
15114;SDS011;7658;51.456;7.622;2023-06-19T04:12:29;8.23;;;4.85;;
15114;SDS011;7658;51.456;7.622;2023-06-19T04:14:56;6.40;;;4.50;;
15114;SDS011;7658;51.456;7.622;2023-06-19T04:17:23;8.35;;;4.28;;
15114;SDS011;7658;51.456;7.622;2023-06-19T04:19:51;6.10;;;4.50;;
15114;SDS011;7658;51.456;7.622;2023-06-19T04:22:18;5.75;;;3.90;;
15114;SDS011;7658;51.456;7.622;2023-06-19T04:24:44;5.88;;;4.15;;
15114;SDS011;7658;51.456;7.622;2023-06-19T04:27:15;6.40;;;4.15;;
15114;SDS011;7658;51.456;7.622;2023-06-19T04:29:41;7.13;;;4.50;;
15114;SDS011;7658;51.456;7.622;2023-06-19T04:32:07;6.57;;;4.28;;
15114;SDS011;7658;51.456;7.622;2023-06-19T04:34:40;6.13;;;3.95;;
15114;SDS011;7658;51.456;7.622;2023-06-19T04:37:11;5.75;;;4.18;;
15114;SDS011;7658;51.456;7.622;2023-06-19T04:39:37;7.32;;;5.07;;
15114;SDS011;7658;51.456;7.622;2023-06-19T04:42:05;7.05;;;4.50;;
15114;SDS011;7658;51.456;7.622;2023-06-19T04:44:31;7.82;;;4.05;;
15114;SDS011;7658;51.456;7.622;2023-06-19T04:46:58;6.63;;;4.05;;
15114;SDS011;7658;51.456;7.622;2023-06-19T04:49:29;4.65;;;4.00;;
15114;SDS011;7658;51.456;7.622;2023-06-19T04:51:56;6.43;;;4.65;;
15114;SDS011;7658;51.456;7.622;2023-06-19T04:54:22;5.97;;;4.05;;
15114;SDS011;7658;51.456;7.622;2023-06-19T04:56:48;5.55;;;4.28;;
15114;SDS011;7658;51.456;7.622;2023-06-19T04:59:14;7.18;;;4.53;;
15114;SDS011;7658;51.456;7.622;2023-06-19T05:01:43;7.13;;;4.50;;
15114;SDS011;7658;51.456;7.622;2023-06-19T05:04:09;7.40;;;4.22;;
15114;SDS011;7658;51.456;7.622;2023-06-19T05:06:36;5.57;;;4.32;;
15114;SDS011;7658;51.456;7.622;2023-06-19T05:09:02;5.75;;;4.40;;
15114;SDS011;7658;51.456;7.622;2023-06-19T05:11:28;6.20;;;4.38;;
15114;SDS011;7658;51.456;7.622;2023-06-19T05:13:54;7.03;;;4.63;;
15114;SDS011;7658;51.456;7.622;2023-06-19T05:16:20;10.43;;;4.57;;
15114;SDS011;7658;51.456;7.622;2023-06-19T05:18:46;5.85;;;4.43;;
15114;SDS011;7658;51.456;7.622;2023-06-19T05:21:12;6.07;;;4.25;;
15114;SDS011;7658;51.456;7.622;2023-06-19T05:23:37;6.13;;;4.38;;
15114;SDS011;7658;51.456;7.622;2023-06-19T05:26:03;6.20;;;4.32;;
15114;SDS011;7658;51.456;7.622;2023-06-19T05:28:29;6.50;;;3.85;;
15114;SDS011;7658;51.456;7.622;2023-06-19T05:30:55;5.40;;;4.07;;
15114;SDS011;7658;51.456;7.622;2023-06-19T05:33:22;7.32;;;4.05;;
15114;SDS011;7658;51.456;7.622;2023-06-19T05:35:48;4.70;;;3.70;;
15114;SDS011;7658;51.456;7.622;2023-06-19T05:38:19;6.90;;;4.13;;
15114;SDS011;7658;51.456;7.622;2023-06-19T05:40:45;6.65;;;3.90;;
15114;SDS011;7658;51.456;7.622;2023-06-19T05:43:11;5.38;;;4.22;;
15114;SDS011;7658;51.456;7.622;2023-06-19T05:45:37;5.47;;;3.83;;
15114;SDS011;7658;51.456;7.622;2023-06-19T05:48:03;6.50;;;3.97;;
15114;SDS011;7658;51.456;7.622;2023-06-19T05:50:29;8.48;;;4.50;;
15114;SDS011;7658;51.456;7.622;2023-06-19T05:52:56;5.68;;;4.13;;
15114;SDS011;7658;51.456;7.622;2023-06-19T05:55:21;5.00;;;3.72;;
15114;SDS011;7658;51.456;7.622;2023-06-19T05:57:50;4.95;;;3.83;;
15114;SDS011;7658;51.456;7.622;2023-06-19T06:00:16;5.90;;;3.33;;
15114;SDS011;7658;51.456;7.622;2023-06-19T06:02:42;6.30;;;3.95;;
15114;SDS011;7658;51.456;7.622;2023-06-19T06:05:08;4.35;;;2.92;;
15114;SDS011;7658;51.456;7.622;2023-06-19T06:07:34;6.20;;;3.00;;
15114;SDS011;7658;51.456;7.622;2023-06-19T06:10:00;3.58;;;2.72;;
15114;SDS011;7658;51.456;7.622;2023-06-19T06:12:25;3.83;;;2.90;;
15114;SDS011;7658;51.456;7.622;2023-06-19T06:14:51;3.95;;;2.80;;
15114;SDS011;7658;51.456;7.622;2023-06-19T06:17:17;2.97;;;2.67;;
15114;SDS011;7658;51.456;7.622;2023-06-19T06:19:43;4.25;;;3.00;;
15114;SDS011;7658;51.456;7.622;2023-06-19T06:22:08;3.35;;;2.75;;
15114;SDS011;7658;51.456;7.622;2023-06-19T06:24:34;3.55;;;3.08;;
15114;SDS011;7658;51.456;7.622;2023-06-19T06:27:00;5.00;;;3.20;;
15114;SDS011;7658;51.456;7.622;2023-06-19T06:29:25;5.43;;;3.38;;
15114;SDS011;7658;51.456;7.622;2023-06-19T06:31:51;6.05;;;3.70;;
15114;SDS011;7658;51.456;7.622;2023-06-19T06:34:27;4.05;;;3.45;;
15114;SDS011;7658;51.456;7.622;2023-06-19T06:36:53;3.92;;;3.15;;
15114;SDS011;7658;51.456;7.622;2023-06-19T06:39:19;6.10;;;3.53;;
15114;SDS011;7658;51.456;7.622;2023-06-19T06:41:45;5.05;;;3.38;;
15114;SDS011;7658;51.456;7.622;2023-06-19T06:44:10;7.18;;;3.25;;
15114;SDS011;7658;51.456;7.622;2023-06-19T06:46:36;7.90;;;3.17;;
15114;SDS011;7658;51.456;7.622;2023-06-19T06:49:02;4.97;;;3.33;;
15114;SDS011;7658;51.456;7.622;2023-06-19T06:51:27;4.50;;;2.78;;
15114;SDS011;7658;51.456;7.622;2023-06-19T06:53:53;4.15;;;3.03;;
15114;SDS011;7658;51.456;7.622;2023-06-19T06:56:19;4.88;;;3.17;;
15114;SDS011;7658;51.456;7.622;2023-06-19T06:58:44;4.53;;;2.58;;
15114;SDS011;7658;51.456;7.622;2023-06-19T07:01:12;4.70;;;2.90;;
15114;SDS011;7658;51.456;7.622;2023-06-19T07:03:37;3.85;;;2.60;;
15114;SDS011;7658;51.456;7.622;2023-06-19T07:06:04;6.43;;;2.83;;
15114;SDS011;7658;51.456;7.622;2023-06-19T07:08:30;4.47;;;2.72;;
15114;SDS011;7658;51.456;7.622;2023-06-19T07:10:56;2.50;;;2.30;;
15114;SDS011;7658;51.456;7.622;2023-06-19T07:13:22;4.47;;;2.80;;
15114;SDS011;7658;51.456;7.622;2023-06-19T07:15:48;3.45;;;2.72;;
15114;SDS011;7658;51.456;7.622;2023-06-19T07:18:13;4.25;;;2.50;;
15114;SDS011;7658;51.456;7.622;2023-06-19T07:20:39;5.88;;;2.90;;
15114;SDS011;7658;51.456;7.622;2023-06-19T07:23:05;5.65;;;2.92;;
15114;SDS011;7658;51.456;7.622;2023-06-19T07:25:31;7.22;;;2.97;;
15114;SDS011;7658;51.456;7.622;2023-06-19T07:27:59;5.30;;;3.40;;
15114;SDS011;7658;51.456;7.622;2023-06-19T07:30:26;4.38;;;2.83;;
15114;SDS011;7658;51.456;7.622;2023-06-19T07:32:52;3.78;;;3.10;;
15114;SDS011;7658;51.456;7.622;2023-06-19T07:35:18;4.57;;;3.08;;
15114;SDS011;7658;51.456;7.622;2023-06-19T07:37:44;4.78;;;2.80;;
15114;SDS011;7658;51.456;7.622;2023-06-19T07:40:10;5.10;;;2.90;;
15114;SDS011;7658;51.456;7.622;2023-06-19T07:42:37;5.15;;;3.13;;
15114;SDS011;7658;51.456;7.622;2023-06-19T07:45:03;3.88;;;3.00;;
15114;SDS011;7658;51.456;7.622;2023-06-19T07:47:29;6.22;;;3.10;;
15114;SDS011;7658;51.456;7.622;2023-06-19T07:49:54;4.45;;;3.22;;
15114;SDS011;7658;51.456;7.622;2023-06-19T07:52:20;3.55;;;2.95;;
15114;SDS011;7658;51.456;7.622;2023-06-19T07:54:53;3.20;;;2.72;;
15114;SDS011;7658;51.456;7.622;2023-06-19T07:57:24;5.18;;;3.25;;
15114;SDS011;7658;51.456;7.622;2023-06-19T07:59:50;4.35;;;3.28;;
15114;SDS011;7658;51.456;7.622;2023-06-19T08:02:17;5.43;;;3.53;;
15114;SDS011;7658;51.456;7.622;2023-06-19T08:04:43;3.97;;;3.08;;
15114;SDS011;7658;51.456;7.622;2023-06-19T08:07:10;5.18;;;3.22;;
15114;SDS011;7658;51.456;7.622;2023-06-19T08:09:35;5.32;;;3.38;;
15114;SDS011;7658;51.456;7.622;2023-06-19T08:12:01;5.47;;;3.20;;
15114;SDS011;7658;51.456;7.622;2023-06-19T08:14:27;4.72;;;3.20;;
15114;SDS011;7658;51.456;7.622;2023-06-19T08:16:54;5.30;;;2.83;;
15114;SDS011;7658;51.456;7.622;2023-06-19T08:19:20;4.85;;;3.08;;
15114;SDS011;7658;51.456;7.622;2023-06-19T08:21:45;4.18;;;3.08;;
15114;SDS011;7658;51.456;7.622;2023-06-19T08:24:11;4.50;;;3.05;;
15114;SDS011;7658;51.456;7.622;2023-06-19T08:26:37;3.75;;;2.88;;
15114;SDS011;7658;51.456;7.622;2023-06-19T08:29:03;5.38;;;3.10;;
15114;SDS011;7658;51.456;7.622;2023-06-19T08:31:28;5.55;;;3.00;;
15114;SDS011;7658;51.456;7.622;2023-06-19T08:33:55;4.80;;;3.28;;
15114;SDS011;7658;51.456;7.622;2023-06-19T08:36:21;5.25;;;2.67;;
15114;SDS011;7658;51.456;7.622;2023-06-19T08:38:47;3.50;;;3.10;;
15114;SDS011;7658;51.456;7.622;2023-06-19T08:41:15;5.43;;;3.30;;
15114;SDS011;7658;51.456;7.622;2023-06-19T08:43:41;5.63;;;3.97;;
15114;SDS011;7658;51.456;7.622;2023-06-19T08:46:11;6.82;;;4.85;;
15114;SDS011;7658;51.456;7.622;2023-06-19T08:48:42;7.43;;;5.57;;
15114;SDS011;7658;51.456;7.622;2023-06-19T08:51:09;9.45;;;5.25;;
15114;SDS011;7658;51.456;7.622;2023-06-19T08:53:36;9.57;;;6.55;;
15114;SDS011;7658;51.456;7.622;2023-06-19T08:56:12;9.80;;;6.57;;
15114;SDS011;7658;51.456;7.622;2023-06-19T08:58:37;7.78;;;5.00;;
15114;SDS011;7658;51.456;7.622;2023-06-19T09:01:03;6.93;;;3.92;;
15114;SDS011;7658;51.456;7.622;2023-06-19T09:03:29;5.93;;;4.05;;
15114;SDS011;7658;51.456;7.622;2023-06-19T09:05:55;6.50;;;3.45;;
15114;SDS011;7658;51.456;7.622;2023-06-19T09:08:21;5.45;;;2.90;;
15114;SDS011;7658;51.456;7.622;2023-06-19T09:10:57;3.88;;;2.92;;
15114;SDS011;7658;51.456;7.622;2023-06-19T09:13:23;4.45;;;3.15;;
15114;SDS011;7658;51.456;7.622;2023-06-19T09:15:56;5.25;;;3.20;;
15114;SDS011;7658;51.456;7.622;2023-06-19T09:18:24;4.53;;;2.97;;
15114;SDS011;7658;51.456;7.622;2023-06-19T09:20:51;4.20;;;2.85;;
15114;SDS011;7658;51.456;7.622;2023-06-19T09:23:18;4.93;;;2.80;;
15114;SDS011;7658;51.456;7.622;2023-06-19T09:26:03;3.78;;;3.10;;
15114;SDS011;7658;51.456;7.622;2023-06-19T09:28:29;5.38;;;2.85;;
15114;SDS011;7658;51.456;7.622;2023-06-19T09:30:55;4.55;;;2.97;;
15114;SDS011;7658;51.456;7.622;2023-06-19T09:33:29;6.50;;;2.78;;
15114;SDS011;7658;51.456;7.622;2023-06-19T09:35:56;4.50;;;3.17;;
15114;SDS011;7658;51.456;7.622;2023-06-19T09:38:24;4.70;;;3.03;;
15114;SDS011;7658;51.456;7.622;2023-06-19T09:40:51;4.00;;;3.08;;
15114;SDS011;7658;51.456;7.622;2023-06-19T09:43:39;6.55;;;3.20;;
15114;SDS011;7658;51.456;7.622;2023-06-19T09:46:07;5.18;;;3.03;;
15114;SDS011;7658;51.456;7.622;2023-06-19T09:48:35;3.90;;;2.90;;
15114;SDS011;7658;51.456;7.622;2023-06-19T09:53:40;5.30;;;3.20;;
15114;SDS011;7658;51.456;7.622;2023-06-19T09:56:08;4.45;;;2.80;;
15114;SDS011;7658;51.456;7.622;2023-06-19T09:58:34;3.78;;;2.53;;
15114;SDS011;7658;51.456;7.622;2023-06-19T10:01:03;6.43;;;2.92;;
15114;SDS011;7658;51.456;7.622;2023-06-19T10:03:30;3.45;;;2.55;;
15114;SDS011;7658;51.456;7.622;2023-06-19T10:05:57;3.17;;;2.38;;
15114;SDS011;7658;51.456;7.622;2023-06-19T10:08:32;5.70;;;2.72;;
15114;SDS011;7658;51.456;7.622;2023-06-19T10:11:04;4.05;;;3.65;;
15114;SDS011;7658;51.456;7.622;2023-06-19T10:13:34;5.32;;;3.75;;
15114;SDS011;7658;51.456;7.622;2023-06-19T10:16:03;4.45;;;4.05;;
15114;SDS011;7658;51.456;7.622;2023-06-19T10:18:31;5.85;;;4.05;;
15114;SDS011;7658;51.456;7.622;2023-06-19T10:20:57;4.85;;;3.35;;
15114;SDS011;7658;51.456;7.622;2023-06-19T10:23:24;4.30;;;3.53;;
15114;SDS011;7658;51.456;7.622;2023-06-19T10:28:19;4.00;;;3.25;;
15114;SDS011;7658;51.456;7.622;2023-06-19T10:33:32;3.70;;;2.97;;
15114;SDS011;7658;51.456;7.622;2023-06-19T10:36:21;6.88;;;3.35;;
15114;SDS011;7658;51.456;7.622;2023-06-19T10:38:51;5.70;;;3.28;;
15114;SDS011;7658;51.456;7.622;2023-06-19T10:41:17;5.72;;;3.75;;
15114;SDS011;7658;51.456;7.622;2023-06-19T10:46:32;4.45;;;3.30;;
15114;SDS011;7658;51.456;7.622;2023-06-19T10:49:01;5.85;;;3.58;;
15114;SDS011;7658;51.456;7.622;2023-06-19T10:51:39;6.97;;;3.78;;
15114;SDS011;7658;51.456;7.622;2023-06-19T10:54:07;6.00;;;3.60;;
15114;SDS011;7658;51.456;7.622;2023-06-19T10:56:33;4.88;;;3.67;;
15114;SDS011;7658;51.456;7.622;2023-06-19T10:59:05;5.18;;;3.30;;
15114;SDS011;7658;51.456;7.622;2023-06-19T11:01:34;4.90;;;3.33;;
15114;SDS011;7658;51.456;7.622;2023-06-19T11:04:05;11.55;;;3.70;;
15114;SDS011;7658;51.456;7.622;2023-06-19T11:06:35;5.70;;;3.85;;
15114;SDS011;7658;51.456;7.622;2023-06-19T11:09:08;5.22;;;3.47;;
15114;SDS011;7658;51.456;7.622;2023-06-19T11:11:39;6.03;;;3.78;;
15114;SDS011;7658;51.456;7.622;2023-06-19T11:14:12;5.38;;;3.60;;
15114;SDS011;7658;51.456;7.622;2023-06-19T11:16:45;5.53;;;3.55;;
15114;SDS011;7658;51.456;7.622;2023-06-19T11:19:16;5.15;;;4.25;;
15114;SDS011;7658;51.456;7.622;2023-06-19T11:21:47;7.72;;;4.38;;
15114;SDS011;7658;51.456;7.622;2023-06-19T11:24:14;6.68;;;3.78;;
15114;SDS011;7658;51.456;7.622;2023-06-19T11:26:41;6.15;;;4.15;;
15114;SDS011;7658;51.456;7.622;2023-06-19T11:29:21;8.98;;;4.07;;
15114;SDS011;7658;51.456;7.622;2023-06-19T11:31:49;6.80;;;3.55;;
15114;SDS011;7658;51.456;7.622;2023-06-19T11:34:16;6.25;;;4.10;;
15114;SDS011;7658;51.456;7.622;2023-06-19T11:36:43;6.07;;;4.15;;
15114;SDS011;7658;51.456;7.622;2023-06-19T11:39:12;8.20;;;4.47;;
15114;SDS011;7658;51.456;7.622;2023-06-19T11:41:39;6.47;;;3.85;;
15114;SDS011;7658;51.456;7.622;2023-06-19T11:44:06;6.40;;;3.72;;
15114;SDS011;7658;51.456;7.622;2023-06-19T11:46:34;5.28;;;4.00;;
15114;SDS011;7658;51.456;7.622;2023-06-19T11:49:10;6.32;;;4.00;;
15114;SDS011;7658;51.456;7.622;2023-06-19T11:51:37;6.43;;;3.85;;
15114;SDS011;7658;51.456;7.622;2023-06-19T11:54:07;6.78;;;4.13;;
15114;SDS011;7658;51.456;7.622;2023-06-19T11:56:37;4.47;;;3.90;;
15114;SDS011;7658;51.456;7.622;2023-06-19T11:59:04;5.50;;;4.07;;
15114;SDS011;7658;51.456;7.622;2023-06-19T12:01:34;5.93;;;3.67;;
15114;SDS011;7658;51.456;7.622;2023-06-19T12:04:01;5.53;;;4.07;;
15114;SDS011;7658;51.456;7.622;2023-06-19T12:06:28;5.95;;;4.30;;
15114;SDS011;7658;51.456;7.622;2023-06-19T12:08:54;9.20;;;4.20;;
15114;SDS011;7658;51.456;7.622;2023-06-19T12:11:20;8.63;;;4.25;;
15114;SDS011;7658;51.456;7.622;2023-06-19T12:13:46;6.72;;;4.18;;
15114;SDS011;7658;51.456;7.622;2023-06-19T12:16:13;6.68;;;4.15;;
15114;SDS011;7658;51.456;7.622;2023-06-19T12:18:39;6.70;;;4.25;;
15114;SDS011;7658;51.456;7.622;2023-06-19T12:21:05;5.47;;;4.15;;
15114;SDS011;7658;51.456;7.622;2023-06-19T12:23:31;7.20;;;4.45;;
15114;SDS011;7658;51.456;7.622;2023-06-19T12:25:57;6.85;;;4.30;;
15114;SDS011;7658;51.456;7.622;2023-06-19T12:28:23;7.43;;;4.13;;
15114;SDS011;7658;51.456;7.622;2023-06-19T12:30:50;5.75;;;4.20;;
15114;SDS011;7658;51.456;7.622;2023-06-19T12:33:17;9.07;;;4.55;;
15114;SDS011;7658;51.456;7.622;2023-06-19T12:35:43;6.15;;;3.95;;
15114;SDS011;7658;51.456;7.622;2023-06-19T12:38:10;7.40;;;4.00;;
15114;SDS011;7658;51.456;7.622;2023-06-19T12:40:36;5.70;;;4.28;;
15114;SDS011;7658;51.456;7.622;2023-06-19T12:43:02;5.70;;;3.70;;
15114;SDS011;7658;51.456;7.622;2023-06-19T12:45:28;4.65;;;3.55;;
15114;SDS011;7658;51.456;7.622;2023-06-19T12:47:54;5.35;;;3.85;;
15114;SDS011;7658;51.456;7.622;2023-06-19T12:50:20;8.55;;;4.50;;
15114;SDS011;7658;51.456;7.622;2023-06-19T12:52:45;8.00;;;4.32;;
15114;SDS011;7658;51.456;7.622;2023-06-19T12:55:11;8.77;;;4.50;;
15114;SDS011;7658;51.456;7.622;2023-06-19T12:57:37;6.75;;;3.90;;
15114;SDS011;7658;51.456;7.622;2023-06-19T13:00:03;5.00;;;3.53;;
15114;SDS011;7658;51.456;7.622;2023-06-19T13:02:32;7.10;;;4.38;;
15114;SDS011;7658;51.456;7.622;2023-06-19T13:04:58;8.07;;;4.00;;
15114;SDS011;7658;51.456;7.622;2023-06-19T13:07:24;5.15;;;4.13;;
15114;SDS011;7658;51.456;7.622;2023-06-19T13:09:51;7.32;;;4.53;;
15114;SDS011;7658;51.456;7.622;2023-06-19T13:12:17;7.30;;;3.88;;
15114;SDS011;7658;51.456;7.622;2023-06-19T13:14:43;5.20;;;4.15;;
15114;SDS011;7658;51.456;7.622;2023-06-19T13:17:09;6.88;;;4.50;;
15114;SDS011;7658;51.456;7.622;2023-06-19T13:19:34;6.32;;;3.85;;
15114;SDS011;7658;51.456;7.622;2023-06-19T13:22:00;5.68;;;4.18;;
15114;SDS011;7658;51.456;7.622;2023-06-19T13:24:26;5.93;;;4.25;;
15114;SDS011;7658;51.456;7.622;2023-06-19T13:26:52;7.18;;;4.55;;
15114;SDS011;7658;51.456;7.622;2023-06-19T13:29:19;6.03;;;4.20;;
15114;SDS011;7658;51.456;7.622;2023-06-19T13:31:45;5.32;;;3.75;;
15114;SDS011;7658;51.456;7.622;2023-06-19T13:34:11;5.53;;;4.18;;
15114;SDS011;7658;51.456;7.622;2023-06-19T13:36:37;9.45;;;4.80;;
15114;SDS011;7658;51.456;7.622;2023-06-19T13:39:03;6.45;;;4.35;;
15114;SDS011;7658;51.456;7.622;2023-06-19T13:41:29;7.93;;;3.90;;
15114;SDS011;7658;51.456;7.622;2023-06-19T13:43:57;7.32;;;4.47;;
15114;SDS011;7658;51.456;7.622;2023-06-19T13:46:26;7.38;;;4.38;;
15114;SDS011;7658;51.456;7.622;2023-06-19T13:48:52;5.70;;;4.30;;
15114;SDS011;7658;51.456;7.622;2023-06-19T13:51:21;7.40;;;4.35;;
15114;SDS011;7658;51.456;7.622;2023-06-19T13:53:47;5.28;;;4.07;;
15114;SDS011;7658;51.456;7.622;2023-06-19T13:56:13;6.50;;;4.40;;
15114;SDS011;7658;51.456;7.622;2023-06-19T13:58:40;7.10;;;4.38;;
15114;SDS011;7658;51.456;7.622;2023-06-19T14:01:06;5.85;;;4.13;;
15114;SDS011;7658;51.456;7.622;2023-06-19T14:03:33;6.78;;;4.40;;
15114;SDS011;7658;51.456;7.622;2023-06-19T14:05:59;5.82;;;4.15;;
15114;SDS011;7658;51.456;7.622;2023-06-19T14:08:25;5.75;;;4.35;;
15114;SDS011;7658;51.456;7.622;2023-06-19T14:10:50;6.13;;;4.32;;
15114;SDS011;7658;51.456;7.622;2023-06-19T14:13:16;6.22;;;4.32;;
15114;SDS011;7658;51.456;7.622;2023-06-19T14:15:42;6.55;;;4.60;;
15114;SDS011;7658;51.456;7.622;2023-06-19T14:18:08;9.38;;;4.45;;
15114;SDS011;7658;51.456;7.622;2023-06-19T14:20:34;10.73;;;4.30;;
15114;SDS011;7658;51.456;7.622;2023-06-19T14:22:59;7.75;;;4.13;;
15114;SDS011;7658;51.456;7.622;2023-06-19T14:25:25;6.15;;;4.07;;
15114;SDS011;7658;51.456;7.622;2023-06-19T14:27:51;6.38;;;4.43;;
15114;SDS011;7658;51.456;7.622;2023-06-19T14:30:18;10.38;;;4.68;;
15114;SDS011;7658;51.456;7.622;2023-06-19T14:32:44;6.78;;;4.20;;
15114;SDS011;7658;51.456;7.622;2023-06-19T14:35:09;6.72;;;4.55;;
15114;SDS011;7658;51.456;7.622;2023-06-19T14:37:36;6.13;;;4.18;;
15114;SDS011;7658;51.456;7.622;2023-06-19T14:40:02;5.53;;;3.78;;
15114;SDS011;7658;51.456;7.622;2023-06-19T14:42:28;8.60;;;4.45;;
15114;SDS011;7658;51.456;7.622;2023-06-19T14:44:54;7.05;;;3.95;;
15114;SDS011;7658;51.456;7.622;2023-06-19T14:47:19;9.07;;;4.80;;
15114;SDS011;7658;51.456;7.622;2023-06-19T14:49:46;8.18;;;4.20;;
15114;SDS011;7658;51.456;7.622;2023-06-19T14:52:12;6.00;;;4.40;;
15114;SDS011;7658;51.456;7.622;2023-06-19T14:54:40;4.85;;;3.80;;
15114;SDS011;7658;51.456;7.622;2023-06-19T14:57:07;8.95;;;4.63;;
15114;SDS011;7658;51.456;7.622;2023-06-19T14:59:33;10.25;;;4.43;;
15114;SDS011;7658;51.456;7.622;2023-06-19T15:01:59;4.57;;;3.72;;
15114;SDS011;7658;51.456;7.622;2023-06-19T15:04:24;7.38;;;4.38;;
15114;SDS011;7658;51.456;7.622;2023-06-19T15:06:50;10.23;;;5.30;;
15114;SDS011;7658;51.456;7.622;2023-06-19T15:09:16;7.10;;;4.32;;
15114;SDS011;7658;51.456;7.622;2023-06-19T15:11:42;6.53;;;4.05;;
15114;SDS011;7658;51.456;7.622;2023-06-19T15:14:08;9.15;;;4.57;;
15114;SDS011;7658;51.456;7.622;2023-06-19T15:16:33;6.03;;;4.68;;